sensor_id;sensor_type;location;lat;lon;timestamp;pressure;altitude;pressure_sealevel;temperature;humidity
57859;BME280;49153;45.568;11.894;2022-11-15T00:00:33;101737.25;;;9.98;88.65
57859;BME280;49153;45.568;11.894;2022-11-15T00:02:58;101736.63;;;9.93;88.95
57859;BME280;49153;45.568;11.894;2022-11-15T00:05:24;101747.78;;;9.98;88.91
57859;BME280;49153;45.568;11.894;2022-11-15T00:07:49;101722.38;;;9.80;87.98
57859;BME280;49153;45.568;11.894;2022-11-15T00:10:15;101732.91;;;9.80;88.08
57859;BME280;49153;45.568;11.894;2022-11-15T00:12:40;101719.59;;;9.65;88.70
57859;BME280;49153;45.568;11.894;2022-11-15T00:15:06;101740.50;;;9.86;88.77
57859;BME280;49153;45.568;11.894;2022-11-15T00:17:32;101710.91;;;9.81;88.86
57859;BME280;49153;45.568;11.894;2022-11-15T00:19:57;101702.38;;;9.75;88.85
57859;BME280;49153;45.568;11.894;2022-11-15T00:22:23;101710.84;;;9.82;88.19
57859;BME280;49153;45.568;11.894;2022-11-15T00:24:48;101715.25;;;9.82;88.06
57859;BME280;49153;45.568;11.894;2022-11-15T00:27:14;101710.22;;;9.77;88.28
57859;BME280;49153;45.568;11.894;2022-11-15T00:29:39;101709.31;;;9.78;87.84
57859;BME280;49153;45.568;11.894;2022-11-15T00:32:09;101705.59;;;9.65;87.18
57859;BME280;49153;45.568;11.894;2022-11-15T00:34:35;101689.34;;;9.40;87.49
57859;BME280;49153;45.568;11.894;2022-11-15T00:37:00;101716.06;;;9.49;87.30
57859;BME280;49153;45.568;11.894;2022-11-15T00:39:26;101705.38;;;9.35;87.41
57859;BME280;49153;45.568;11.894;2022-11-15T00:41:51;101708.09;;;9.33;87.73
57859;BME280;49153;45.568;11.894;2022-11-15T00:44:17;101714.13;;;9.36;88.18
57859;BME280;49153;45.568;11.894;2022-11-15T00:46:42;101724.56;;;9.37;87.43
57859;BME280;49153;45.568;11.894;2022-11-15T00:49:08;101716.84;;;9.34;88.23
57859;BME280;49153;45.568;11.894;2022-11-15T00:51:33;101688.41;;;9.23;87.84
57859;BME280;49153;45.568;11.894;2022-11-15T00:53:58;101693.69;;;9.23;88.12
57859;BME280;49153;45.568;11.894;2022-11-15T00:56:24;101693.00;;;9.20;87.67
57859;BME280;49153;45.568;11.894;2022-11-15T00:58:49;101697.84;;;9.10;88.29
57859;BME280;49153;45.568;11.894;2022-11-15T01:01:15;101696.75;;;8.97;87.82
57859;BME280;49153;45.568;11.894;2022-11-15T01:03:41;101720.84;;;9.07;87.65
57859;BME280;49153;45.568;11.894;2022-11-15T01:06:08;101711.53;;;9.00;87.57
57859;BME280;49153;45.568;11.894;2022-11-15T01:08:33;101700.03;;;8.83;87.87
57859;BME280;49153;45.568;11.894;2022-11-15T01:11:04;101721.66;;;8.90;88.78
57859;BME280;49153;45.568;11.894;2022-11-15T01:13:31;101721.50;;;8.93;88.68
57859;BME280;49153;45.568;11.894;2022-11-15T01:15:56;101721.66;;;8.90;88.88
57859;BME280;49153;45.568;11.894;2022-11-15T01:18:22;101714.84;;;8.86;88.65
57859;BME280;49153;45.568;11.894;2022-11-15T01:20:47;101701.91;;;8.81;88.48
57859;BME280;49153;45.568;11.894;2022-11-15T01:23:12;101714.84;;;8.86;88.53
57859;BME280;49153;45.568;11.894;2022-11-15T01:25:38;101690.66;;;8.78;88.97
57859;BME280;49153;45.568;11.894;2022-11-15T01:28:04;101721.91;;;9.03;88.99
57859;BME280;49153;45.568;11.894;2022-11-15T01:30:29;101725.31;;;9.05;88.76
57859;BME280;49153;45.568;11.894;2022-11-15T01:32:54;101700.53;;;8.92;88.40
57859;BME280;49153;45.568;11.894;2022-11-15T01:35:21;101691.22;;;8.84;88.30
57859;BME280;49153;45.568;11.894;2022-11-15T01:37:46;101713.81;;;8.88;88.39
57859;BME280;49153;45.568;11.894;2022-11-15T01:40:12;101683.94;;;8.72;88.01
57859;BME280;49153;45.568;11.894;2022-11-15T01:42:37;101715.81;;;8.83;88.19
57859;BME280;49153;45.568;11.894;2022-11-15T01:45:05;101714.84;;;8.86;88.33
57859;BME280;49153;45.568;11.894;2022-11-15T01:47:38;101722.66;;;8.87;88.30
57859;BME280;49153;45.568;11.894;2022-11-15T01:50:07;101696.25;;;8.72;88.29
57859;BME280;49153;45.568;11.894;2022-11-15T01:52:34;101711.63;;;8.79;88.02
57859;BME280;49153;45.568;11.894;2022-11-15T01:55:11;101712.16;;;8.69;88.27
57859;BME280;49153;45.568;11.894;2022-11-15T01:57:40;101713.28;;;8.63;88.31
57859;BME280;49153;45.568;11.894;2022-11-15T02:00:07;101716.56;;;8.68;88.60
57859;BME280;49153;45.568;11.894;2022-11-15T02:02:33;101686.81;;;8.49;88.31
57859;BME280;49153;45.568;11.894;2022-11-15T02:04:59;101689.56;;;8.46;89.39
57859;BME280;49153;45.568;11.894;2022-11-15T02:07:25;101711.81;;;8.58;89.82
57859;BME280;49153;45.568;11.894;2022-11-15T02:09:52;101693.16;;;8.45;90.17
57859;BME280;49153;45.568;11.894;2022-11-15T02:12:20;101710.19;;;8.55;90.35
57859;BME280;49153;45.568;11.894;2022-11-15T02:14:52;101688.00;;;8.42;90.44
57859;BME280;49153;45.568;11.894;2022-11-15T02:17:38;101677.78;;;8.36;91.10
57859;BME280;49153;45.568;11.894;2022-11-15T02:26:37;101688.34;;;8.53;91.42
57859;BME280;49153;45.568;11.894;2022-11-15T02:29:22;101655.75;;;8.38;91.38
57859;BME280;49153;45.568;11.894;2022-11-15T02:32:03;101659.81;;;8.45;91.38
57859;BME280;49153;45.568;11.894;2022-11-15T02:34:54;101676.63;;;8.60;91.39
57859;BME280;49153;45.568;11.894;2022-11-15T02:37:31;101672.75;;;8.67;91.29
57859;BME280;49153;45.568;11.894;2022-11-15T02:40:13;101642.81;;;8.53;91.04
57859;BME280;49153;45.568;11.894;2022-11-15T02:42:49;101663.09;;;8.68;90.71
57859;BME280;49153;45.568;11.894;2022-11-15T02:45:40;101637.69;;;8.50;90.33
57859;BME280;49153;45.568;11.894;2022-11-15T02:48:07;101669.66;;;8.59;90.57
57859;BME280;49153;45.568;11.894;2022-11-15T02:50:34;101660.22;;;8.55;90.50
57859;BME280;49153;45.568;11.894;2022-11-15T02:52:59;101629.31;;;8.41;90.13
57859;BME280;49153;45.568;11.894;2022-11-15T02:55:46;101655.53;;;8.62;90.17
57859;BME280;49153;45.568;11.894;2022-11-15T02:58:21;101642.81;;;8.53;89.38
57859;BME280;49153;45.568;11.894;2022-11-15T03:09:40;101647.66;;;8.43;90.21
57859;BME280;49153;45.568;11.894;2022-11-15T03:17:23;101647.66;;;8.43;90.13
57859;BME280;49153;45.568;11.894;2022-11-15T03:19:54;101652.34;;;8.36;89.33
57859;BME280;49153;45.568;11.894;2022-11-15T03:22:23;101653.41;;;8.32;89.64
57859;BME280;49153;45.568;11.894;2022-11-15T03:24:59;101637.41;;;8.18;90.05
57859;BME280;49153;45.568;11.894;2022-11-15T03:27:30;101619.81;;;8.01;90.02
57859;BME280;49153;45.568;11.894;2022-11-15T03:30:01;101637.75;;;8.11;90.19
57859;BME280;49153;45.568;11.894;2022-11-15T03:32:33;101650.78;;;8.14;90.72
57859;BME280;49153;45.568;11.894;2022-11-15T03:35:05;101630.66;;;7.94;90.44
57859;BME280;49153;45.568;11.894;2022-11-15T03:37:43;101647.91;;;7.99;90.64
57859;BME280;49153;45.568;11.894;2022-11-15T03:40:10;101617.53;;;7.75;90.71
57859;BME280;49153;45.568;11.894;2022-11-15T03:42:59;101647.41;;;7.91;91.13
57859;BME280;49153;45.568;11.894;2022-11-15T03:45:31;101651.94;;;7.88;91.21
57859;BME280;49153;45.568;11.894;2022-11-15T03:48:13;101639.13;;;7.82;91.42
57859;BME280;49153;45.568;11.894;2022-11-15T03:50:42;101633.97;;;7.79;91.81
57859;BME280;49153;45.568;11.894;2022-11-15T03:53:08;101628.94;;;7.74;91.88
57859;BME280;49153;45.568;11.894;2022-11-15T03:55:34;101632.56;;;7.72;91.57
57859;BME280;49153;45.568;11.894;2022-11-15T03:58:00;101633.91;;;7.80;91.96
57859;BME280;49153;45.568;11.894;2022-11-15T04:00:26;101641.44;;;7.88;91.50
57859;BME280;49153;45.568;11.894;2022-11-15T04:02:52;101643.34;;;7.84;91.72
57859;BME280;49153;45.568;11.894;2022-11-15T04:05:17;101615.81;;;7.74;91.66
57859;BME280;49153;45.568;11.894;2022-11-15T04:07:43;101609.75;;;7.72;92.37
57859;BME280;49153;45.568;11.894;2022-11-15T04:10:10;101624.84;;;7.87;91.94
57859;BME280;49153;45.568;11.894;2022-11-15T04:12:38;101629.31;;;7.85;91.64
57859;BME280;49153;45.568;11.894;2022-11-15T04:15:07;101616.19;;;7.67;91.36
57859;BME280;49153;45.568;11.894;2022-11-15T04:20:11;101647.13;;;7.79;92.35
57859;BME280;49153;45.568;11.894;2022-11-15T04:22:56;101644.31;;;7.63;91.46
57859;BME280;49153;45.568;11.894;2022-11-15T04:25:41;101642.59;;;7.62;91.76
57859;BME280;49153;45.568;11.894;2022-11-15T04:28:07;101644.47;;;7.60;91.74
57859;BME280;49153;45.568;11.894;2022-11-15T04:30:33;101652.47;;;7.57;91.11
57859;BME280;49153;45.568;11.894;2022-11-15T04:32:58;101627.09;;;7.37;91.39
57859;BME280;49153;45.568;11.894;2022-11-15T04:35:24;101652.94;;;7.46;91.45
57859;BME280;49153;45.568;11.894;2022-11-15T04:37:49;101626.75;;;7.25;91.06
57859;BME280;49153;45.568;11.894;2022-11-15T04:40:15;101641.38;;;7.30;91.90
57859;BME280;49153;45.568;11.894;2022-11-15T04:42:41;101651.78;;;7.33;91.89
57859;BME280;49153;45.568;11.894;2022-11-15T04:45:08;101673.88;;;7.48;91.95
57859;BME280;49153;45.568;11.894;2022-11-15T04:47:33;101642.97;;;7.34;92.00
57859;BME280;49153;45.568;11.894;2022-11-15T04:49:59;101673.72;;;7.51;91.93
57859;BME280;49153;45.568;11.894;2022-11-15T04:52:24;101648.03;;;7.39;92.21
57859;BME280;49153;45.568;11.894;2022-11-15T04:54:52;101652.22;;;7.43;91.94
57859;BME280;49153;45.568;11.894;2022-11-15T04:57:18;101650.50;;;7.42;91.61
57859;BME280;49153;45.568;11.894;2022-11-15T04:59:44;101626.00;;;7.22;91.94
57859;BME280;49153;45.568;11.894;2022-11-15T05:02:09;101638.00;;;7.28;92.09
57859;BME280;49153;45.568;11.894;2022-11-15T05:04:34;101622.50;;;7.22;92.43
57859;BME280;49153;45.568;11.894;2022-11-15T05:07:00;101622.50;;;7.22;92.24
57859;BME280;49153;45.568;11.894;2022-11-15T05:09:25;101625.13;;;7.22;92.26
57859;BME280;49153;45.568;11.894;2022-11-15T05:11:52;101632.75;;;7.28;92.11
57859;BME280;49153;45.568;11.894;2022-11-15T05:14:17;101637.66;;;7.36;92.17
57859;BME280;49153;45.568;11.894;2022-11-15T05:16:43;101635.97;;;7.35;92.17
57859;BME280;49153;45.568;11.894;2022-11-15T05:19:08;101607.72;;;7.19;92.32
57859;BME280;49153;45.568;11.894;2022-11-15T05:21:34;101598.94;;;7.20;92.85
57859;BME280;49153;45.568;11.894;2022-11-15T05:24:00;101622.53;;;7.41;92.90
57859;BME280;49153;45.568;11.894;2022-11-15T05:26:27;101600.00;;;7.37;92.62
57859;BME280;49153;45.568;11.894;2022-11-15T05:28:56;101601.97;;;7.32;91.87
57859;BME280;49153;45.568;11.894;2022-11-15T05:31:23;101620.78;;;7.41;92.42
57859;BME280;49153;45.568;11.894;2022-11-15T05:33:50;101595.16;;;7.28;92.70
57859;BME280;49153;45.568;11.894;2022-11-15T05:36:38;101609.59;;;7.17;91.63
57859;BME280;49153;45.568;11.894;2022-11-15T05:39:06;101610.25;;;7.02;91.37
57859;BME280;49153;45.568;11.894;2022-11-15T05:41:44;101610.31;;;7.01;91.57
57859;BME280;49153;45.568;11.894;2022-11-15T05:44:15;101619.69;;;7.06;91.88
57859;BME280;49153;45.568;11.894;2022-11-15T05:46:43;101604.25;;;6.99;91.87
57859;BME280;49153;45.568;11.894;2022-11-15T05:49:12;101617.66;;;7.13;91.55
57859;BME280;49153;45.568;11.894;2022-11-15T05:51:40;101591.09;;;7.00;92.07
57859;BME280;49153;45.568;11.894;2022-11-15T05:54:07;101607.88;;;7.16;92.39
57859;BME280;49153;45.568;11.894;2022-11-15T05:56:32;101610.25;;;7.22;92.73
57859;BME280;49153;45.568;11.894;2022-11-15T05:58:58;101595.81;;;7.12;91.55
57859;BME280;49153;45.568;11.894;2022-11-15T06:01:25;101596.94;;;7.07;91.72
57859;BME280;49153;45.568;11.894;2022-11-15T06:03:51;101610.34;;;6.99;90.97
57859;BME280;49153;45.568;11.894;2022-11-15T06:06:17;101612.72;;;6.85;90.91
57859;BME280;49153;45.568;11.894;2022-11-15T06:08:42;101623.94;;;6.89;91.26
57859;BME280;49153;45.568;11.894;2022-11-15T06:11:07;101597.47;;;6.73;91.32
57859;BME280;49153;45.568;11.894;2022-11-15T06:13:33;101621.44;;;6.86;91.63
57859;BME280;49153;45.568;11.894;2022-11-15T06:15:59;101602.97;;;6.67;91.69
57859;BME280;49153;45.568;11.894;2022-11-15T06:18:25;101620.56;;;6.65;91.42
57859;BME280;49153;45.568;11.894;2022-11-15T06:20:51;101615.56;;;6.59;91.43
57859;BME280;49153;45.568;11.894;2022-11-15T06:23:17;101625.91;;;6.62;91.32
57859;BME280;49153;45.568;11.894;2022-11-15T06:25:43;101616.19;;;6.44;91.62
57859;BME280;49153;45.568;11.894;2022-11-15T06:28:08;101633.63;;;6.45;91.85
57859;BME280;49153;45.568;11.894;2022-11-15T06:30:34;101656.25;;;6.46;91.76
57859;BME280;49153;45.568;11.894;2022-11-15T06:33:03;101648.53;;;6.43;92.38
57859;BME280;49153;45.568;11.894;2022-11-15T06:35:30;101629.22;;;6.23;92.29
57859;BME280;49153;45.568;11.894;2022-11-15T06:37:59;101643.75;;;6.30;92.50
57859;BME280;49153;45.568;11.894;2022-11-15T06:40:26;101663.75;;;6.33;92.26
57859;BME280;49153;45.568;11.894;2022-11-15T06:42:58;101645.94;;;6.19;92.72
57859;BME280;49153;45.568;11.894;2022-11-15T06:45:24;101631.41;;;6.12;92.65
57859;BME280;49153;45.568;11.894;2022-11-15T06:47:49;101667.25;;;6.33;93.16
57859;BME280;49153;45.568;11.894;2022-11-15T06:50:14;101655.91;;;6.33;93.52
57859;BME280;49153;45.568;11.894;2022-11-15T06:52:40;101657.53;;;6.35;93.23
57859;BME280;49153;45.568;11.894;2022-11-15T06:55:06;101654.72;;;6.40;93.73
57859;BME280;49153;45.568;11.894;2022-11-15T06:57:31;101635.91;;;6.30;93.72
57859;BME280;49153;45.568;11.894;2022-11-15T06:59:57;101671.88;;;6.49;93.65
57859;BME280;49153;45.568;11.894;2022-11-15T07:02:22;101663.78;;;6.55;93.88
57859;BME280;49153;45.568;11.894;2022-11-15T07:04:48;101662.06;;;6.54;94.07
57859;BME280;49153;45.568;11.894;2022-11-15T07:07:13;101669.69;;;6.60;93.89
57859;BME280;49153;45.568;11.894;2022-11-15T07:09:39;101678.00;;;6.71;93.89
57859;BME280;49153;45.568;11.894;2022-11-15T07:12:05;101668.59;;;6.65;94.02
57859;BME280;49153;45.568;11.894;2022-11-15T07:14:30;101653.97;;;6.60;94.19
57859;BME280;49153;45.568;11.894;2022-11-15T07:16:56;101676.28;;;6.70;94.44
57859;BME280;49153;45.568;11.894;2022-11-15T07:19:21;101657.38;;;6.62;94.36
57859;BME280;49153;45.568;11.894;2022-11-15T07:21:48;101657.97;;;6.68;94.39
57859;BME280;49153;45.568;11.894;2022-11-15T07:24:13;101664.09;;;6.69;94.41
57859;BME280;49153;45.568;11.894;2022-11-15T07:26:39;101659.44;;;6.75;94.60
57859;BME280;49153;45.568;11.894;2022-11-15T07:29:04;101658.53;;;6.76;94.59
57859;BME280;49153;45.568;11.894;2022-11-15T07:31:29;101662.13;;;6.74;94.71
57859;BME280;49153;45.568;11.894;2022-11-15T07:33:55;101662.97;;;6.74;94.58
57859;BME280;49153;45.568;11.894;2022-11-15T07:36:20;101656.16;;;6.70;94.86
57859;BME280;49153;45.568;11.894;2022-11-15T07:38:46;101658.59;;;6.75;94.75
57859;BME280;49153;45.568;11.894;2022-11-15T07:41:11;101670.53;;;6.82;95.64
57859;BME280;49153;45.568;11.894;2022-11-15T07:43:36;101663.03;;;6.73;95.29
57859;BME280;49153;45.568;11.894;2022-11-15T07:46:07;101695.72;;;6.86;95.61
57859;BME280;49153;45.568;11.894;2022-11-15T07:48:38;101681.81;;;6.84;95.68
57859;BME280;49153;45.568;11.894;2022-11-15T07:51:05;101678.34;;;6.84;95.67
57859;BME280;49153;45.568;11.894;2022-11-15T07:53:31;101677.13;;;6.92;96.30
57859;BME280;49153;45.568;11.894;2022-11-15T07:55:56;101649.44;;;6.85;96.32
57859;BME280;49153;45.568;11.894;2022-11-15T07:58:23;101668.88;;;7.01;96.30
57859;BME280;49153;45.568;11.894;2022-11-15T08:00:48;101648.53;;;6.86;95.97
57859;BME280;49153;45.568;11.894;2022-11-15T08:03:15;101651.00;;;6.89;96.22
57859;BME280;49153;45.568;11.894;2022-11-15T08:05:42;101655.63;;;7.04;96.53
57859;BME280;49153;45.568;11.894;2022-11-15T08:08:10;101675.97;;;7.19;96.53
57859;BME280;49153;45.568;11.894;2022-11-15T08:10:36;101663.78;;;7.18;96.78
57859;BME280;49153;45.568;11.894;2022-11-15T08:13:04;101654.84;;;7.22;96.97
57859;BME280;49153;45.568;11.894;2022-11-15T08:15:30;101677.97;;;7.35;96.66
57859;BME280;49153;45.568;11.894;2022-11-15T08:18:03;101676.25;;;7.34;96.78
57859;BME280;49153;45.568;11.894;2022-11-15T08:20:29;101670.09;;;7.35;96.89
57859;BME280;49153;45.568;11.894;2022-11-15T08:22:59;101660.63;;;7.31;96.88
57859;BME280;49153;45.568;11.894;2022-11-15T08:25:28;101656.56;;;7.24;97.18
57859;BME280;49153;45.568;11.894;2022-11-15T08:27:57;101677.81;;;7.38;97.46
57859;BME280;49153;45.568;11.894;2022-11-15T08:30:23;101668.50;;;7.31;97.46
57859;BME280;49153;45.568;11.894;2022-11-15T08:32:50;101674.13;;;7.42;98.11
57859;BME280;49153;45.568;11.894;2022-11-15T08:35:16;101654.03;;;7.41;98.11
57859;BME280;49153;45.568;11.894;2022-11-15T08:37:42;101648.88;;;7.39;98.41
57859;BME280;49153;45.568;11.894;2022-11-15T08:40:07;101665.13;;;7.47;98.13
57859;BME280;49153;45.568;11.894;2022-11-15T08:42:33;101649.41;;;7.47;98.25
57859;BME280;49153;45.568;11.894;2022-11-15T08:44:58;101648.28;;;7.53;98.83
57859;BME280;49153;45.568;11.894;2022-11-15T08:47:24;101651.59;;;7.56;98.56
57859;BME280;49153;45.568;11.894;2022-11-15T08:49:51;101637.56;;;7.57;99.42
57859;BME280;49153;45.568;11.894;2022-11-15T08:52:18;101636.59;;;7.60;98.64
57859;BME280;49153;45.568;11.894;2022-11-15T08:54:43;101635.25;;;7.70;99.13
57859;BME280;49153;45.568;11.894;2022-11-15T08:57:08;101635.53;;;7.83;99.80
57859;BME280;49153;45.568;11.894;2022-11-15T08:59:36;101641.81;;;7.99;99.52
57859;BME280;49153;45.568;11.894;2022-11-15T09:02:02;101640.53;;;8.07;99.47
57859;BME280;49153;45.568;11.894;2022-11-15T09:04:28;101624.78;;;8.07;99.59
57859;BME280;49153;45.568;11.894;2022-11-15T09:06:54;101633.09;;;8.17;98.99
57859;BME280;49153;45.568;11.894;2022-11-15T09:09:20;101626.75;;;8.21;99.51
57859;BME280;49153;45.568;11.894;2022-11-15T09:11:46;101640.63;;;8.43;99.79
57859;BME280;49153;45.568;11.894;2022-11-15T09:14:12;101646.97;;;8.57;99.75
57859;BME280;49153;45.568;11.894;2022-11-15T09:16:38;101630.84;;;8.64;99.67
57859;BME280;49153;45.568;11.894;2022-11-15T09:19:11;101638.22;;;8.75;100.00
57859;BME280;49153;45.568;11.894;2022-11-15T09:21:39;101634.13;;;8.86;100.00
57859;BME280;49153;45.568;11.894;2022-11-15T09:24:06;101619.44;;;8.82;99.91
57859;BME280;49153;45.568;11.894;2022-11-15T09:26:32;101627.63;;;8.94;99.63
57859;BME280;49153;45.568;11.894;2022-11-15T09:28:57;101620.50;;;8.96;99.93
57859;BME280;49153;45.568;11.894;2022-11-15T09:31:23;101639.84;;;9.12;99.21
57859;BME280;49153;45.568;11.894;2022-11-15T09:33:51;101619.91;;;9.08;99.41
57859;BME280;49153;45.568;11.894;2022-11-15T09:36:16;101634.91;;;9.23;99.27
57859;BME280;49153;45.568;11.894;2022-11-15T09:38:42;101628.25;;;9.16;98.99
57859;BME280;49153;45.568;11.894;2022-11-15T09:49:26;101621.38;;;9.13;99.06
57859;BME280;49153;45.568;11.894;2022-11-15T09:51:53;101635.81;;;9.22;99.14
57859;BME280;49153;45.568;11.894;2022-11-15T09:54:36;101637.16;;;9.30;99.58
57859;BME280;49153;45.568;11.894;2022-11-15T09:57:13;101632.34;;;9.39;99.33
57859;BME280;49153;45.568;11.894;2022-11-15T10:05:25;101619.81;;;9.59;99.30
57859;BME280;49153;45.568;11.894;2022-11-15T10:08:23;101623.84;;;9.66;99.29
57859;BME280;49153;45.568;11.894;2022-11-15T10:11:11;101618.41;;;9.69;98.71
57859;BME280;49153;45.568;11.894;2022-11-15T10:13:44;101618.00;;;9.77;99.17
57859;BME280;49153;45.568;11.894;2022-11-15T10:24:19;101607.38;;;9.94;98.38
57859;BME280;49153;45.568;11.894;2022-11-15T10:26:48;101601.09;;;9.97;98.51
57859;BME280;49153;45.568;11.894;2022-11-15T10:29:19;101594.91;;;9.98;98.37
57859;BME280;49153;45.568;11.894;2022-11-15T10:31:44;101588.34;;;10.05;98.69
57859;BME280;49153;45.568;11.894;2022-11-15T10:34:14;101576.13;;;10.04;98.53
57859;BME280;49153;45.568;11.894;2022-11-15T10:36:45;101570.47;;;10.10;99.06
57859;BME280;49153;45.568;11.894;2022-11-15T10:39:13;101562.34;;;10.14;98.72
57859;BME280;49153;45.568;11.894;2022-11-15T10:41:41;101563.38;;;10.28;98.46
57859;BME280;49153;45.568;11.894;2022-11-15T10:46:35;101556.75;;;10.36;98.58
57859;BME280;49153;45.568;11.894;2022-11-15T10:49:14;101557.13;;;10.44;98.04
57859;BME280;49153;45.568;11.894;2022-11-15T10:56:54;101550.81;;;10.63;98.16
57859;BME280;49153;45.568;11.894;2022-11-15T10:59:33;101551.19;;;10.71;97.63
57859;BME280;49153;45.568;11.894;2022-11-15T11:02:00;101550.19;;;10.73;97.15
57859;BME280;49153;45.568;11.894;2022-11-15T11:04:26;101538.66;;;10.74;97.27
57859;BME280;49153;45.568;11.894;2022-11-15T11:06:59;101518.69;;;10.70;96.95
57859;BME280;49153;45.568;11.894;2022-11-15T11:11:56;101524.66;;;10.88;97.16
57859;BME280;49153;45.568;11.894;2022-11-15T11:14:26;101517.41;;;10.91;97.04
57859;BME280;49153;45.568;11.894;2022-11-15T11:19:44;101519.41;;;11.02;97.04
57859;BME280;49153;45.568;11.894;2022-11-15T11:33:17;101505.09;;;11.20;96.66
57859;BME280;49153;45.568;11.894;2022-11-15T11:41:53;101479.59;;;11.33;95.99
57859;BME280;49153;45.568;11.894;2022-11-15T11:47:01;101476.59;;;11.39;95.54
57859;BME280;49153;45.568;11.894;2022-11-15T11:49:50;101475.53;;;11.42;95.09
57859;BME280;49153;45.568;11.894;2022-11-15T11:55:38;101470.91;;;11.46;94.74
57859;BME280;49153;45.568;11.894;2022-11-15T11:58:22;101463.00;;;11.46;94.67
57859;BME280;49153;45.568;11.894;2022-11-15T12:00:56;101472.41;;;11.50;94.54
57859;BME280;49153;45.568;11.894;2022-11-15T12:03:45;101465.03;;;11.55;94.92
57859;BME280;49153;45.568;11.894;2022-11-15T12:06:21;101463.16;;;11.57;94.55
57859;BME280;49153;45.568;11.894;2022-11-15T12:09:33;101452.47;;;11.58;94.48
57859;BME280;49153;45.568;11.894;2022-11-15T12:12:08;101446.91;;;11.63;94.59
57859;BME280;49153;45.568;11.894;2022-11-15T12:14:43;101450.28;;;11.65;94.17
57859;BME280;49153;45.568;11.894;2022-11-15T12:17:12;101441.81;;;11.60;93.82
57859;BME280;49153;45.568;11.894;2022-11-15T12:19:39;101455.59;;;11.65;94.44
57859;BME280;49153;45.568;11.894;2022-11-15T12:22:14;101448.59;;;11.64;93.80
57859;BME280;49153;45.568;11.894;2022-11-15T12:24:44;101447.56;;;11.66;94.20
57859;BME280;49153;45.568;11.894;2022-11-15T12:29:48;101429.63;;;11.71;94.21
57859;BME280;49153;45.568;11.894;2022-11-15T12:32:28;101433.09;;;11.72;93.68
57859;BME280;49153;45.568;11.894;2022-11-15T12:34:55;101422.63;;;11.70;94.19
57859;BME280;49153;45.568;11.894;2022-11-15T12:40:20;101423.97;;;11.77;93.91
57859;BME280;49153;45.568;11.894;2022-11-15T12:46:03;101410.66;;;11.79;93.80
57859;BME280;49153;45.568;11.894;2022-11-15T12:59:53;101394.38;;;11.85;93.84
57859;BME280;49153;45.568;11.894;2022-11-15T13:02:47;101386.44;;;11.85;93.53
57859;BME280;49153;45.568;11.894;2022-11-15T13:10:52;101370.03;;;11.80;93.58
57859;BME280;49153;45.568;11.894;2022-11-15T13:13:45;101352.69;;;11.76;93.60
57859;BME280;49153;45.568;11.894;2022-11-15T13:16:41;101359.06;;;11.86;93.87
57859;BME280;49153;45.568;11.894;2022-11-15T13:23:20;101367.66;;;12.02;93.78
57859;BME280;49153;45.568;11.894;2022-11-15T13:26:12;101365.03;;;12.02;93.48
57859;BME280;49153;45.568;11.894;2022-11-15T13:29:37;101348.06;;;11.92;93.79
57859;BME280;49153;45.568;11.894;2022-11-15T13:33:37;101364.94;;;12.04;93.40
57859;BME280;49153;45.568;11.894;2022-11-15T13:36:31;101335.34;;;11.84;93.26
57859;BME280;49153;45.568;11.894;2022-11-15T13:42:54;101332.63;;;11.86;93.86
57859;BME280;49153;45.568;11.894;2022-11-15T13:52:16;101350.09;;;12.01;93.61
57859;BME280;49153;45.568;11.894;2022-11-15T13:55:20;101343.88;;;12.02;93.62
57859;BME280;49153;45.568;11.894;2022-11-15T13:58:43;101310.75;;;11.84;93.73
57859;BME280;49153;45.568;11.894;2022-11-15T14:02:01;101339.44;;;12.03;93.71
57859;BME280;49153;45.568;11.894;2022-11-15T14:10:41;101308.97;;;11.97;94.04
57859;BME280;49153;45.568;11.894;2022-11-15T15:13:37;101271.84;;;11.99;95.75
57859;BME280;49153;45.568;11.894;2022-11-15T15:16:02;101265.91;;;11.95;95.76
57859;BME280;49153;45.568;11.894;2022-11-15T15:18:27;101257.97;;;11.95;96.23
57859;BME280;49153;45.568;11.894;2022-11-15T15:20:58;101271.50;;;11.91;95.36
57859;BME280;49153;45.568;11.894;2022-11-15T15:23:33;101279.53;;;11.76;95.02
57859;BME280;49153;45.568;11.894;2022-11-15T15:26:00;101275.47;;;11.71;95.36
57859;BME280;49153;45.568;11.894;2022-11-15T15:28:26;101277.16;;;11.72;96.35
57859;BME280;49153;45.568;11.894;2022-11-15T15:30:51;101273.41;;;11.76;96.79
57859;BME280;49153;45.568;11.894;2022-11-15T15:33:17;101263.66;;;11.76;96.57
57859;BME280;49153;45.568;11.894;2022-11-15T15:35:43;101265.28;;;11.79;96.62
57859;BME280;49153;45.568;11.894;2022-11-15T15:38:11;101253.53;;;11.83;97.00
57859;BME280;49153;45.568;11.894;2022-11-15T15:40:37;101255.25;;;11.84;96.80
57859;BME280;49153;45.568;11.894;2022-11-15T15:43:03;101252.38;;;11.87;96.85
57859;BME280;49153;45.568;11.894;2022-11-15T15:45:28;101255.88;;;11.88;96.76
57859;BME280;49153;45.568;11.894;2022-11-15T15:47:54;101262.84;;;11.89;96.55
57859;BME280;49153;45.568;11.894;2022-11-15T15:52:49;101264.41;;;11.91;96.65
57859;BME280;49153;45.568;11.894;2022-11-15T15:55:14;101263.56;;;11.91;96.32
57859;BME280;49153;45.568;11.894;2022-11-15T15:57:40;101255.88;;;11.88;96.05
57859;BME280;49153;45.568;11.894;2022-11-15T16:00:05;101259.25;;;11.90;96.56
57859;BME280;49153;45.568;11.894;2022-11-15T16:02:31;101265.38;;;11.90;96.32
57859;BME280;49153;45.568;11.894;2022-11-15T16:04:57;101255.63;;;11.91;96.29
57859;BME280;49153;45.568;11.894;2022-11-15T16:07:22;101260.84;;;11.92;96.27
57859;BME280;49153;45.568;11.894;2022-11-15T16:09:53;101260.06;;;11.90;96.14
57859;BME280;49153;45.568;11.894;2022-11-15T16:12:25;101268.75;;;11.92;96.36